createdAt,value
2023-04-11T00:00:13.484Z,992.52
2023-04-11T00:01:13.501Z,992.43
2023-04-11T00:02:13.586Z,992.42
2023-04-11T00:03:14.072Z,992.39
2023-04-11T00:04:14.072Z,992.37
2023-04-11T00:05:13.108Z,992.42
2023-04-11T00:06:13.321Z,992.44
2023-04-11T00:07:13.246Z,992.45
2023-04-11T00:08:13.325Z,992.42
2023-04-11T00:09:13.228Z,992.43
2023-04-11T00:10:13.271Z,992.45
2023-04-11T00:11:13.278Z,992.44
2023-04-11T00:12:13.263Z,992.47
2023-04-11T00:13:13.140Z,992.46
2023-04-11T00:14:13.408Z,992.38
2023-04-11T00:15:13.390Z,992.37
2023-04-11T00:16:13.524Z,992.38
2023-04-11T00:17:13.699Z,992.40
2023-04-11T00:18:13.939Z,992.36
2023-04-11T00:19:12.837Z,992.33
2023-04-11T00:20:13.760Z,992.25
2023-04-11T00:21:13.650Z,992.20
2023-04-11T00:22:13.912Z,992.23
2023-04-11T00:23:12.876Z,992.25
2023-04-11T00:24:13.085Z,992.38
2023-04-11T00:25:13.036Z,992.47
2023-04-11T00:26:12.889Z,992.48
2023-04-11T00:27:12.928Z,992.50
2023-04-11T00:28:12.712Z,992.53
2023-04-11T00:29:13.805Z,992.48
2023-04-11T00:30:14.054Z,992.47
2023-04-11T00:31:13.629Z,992.57
2023-04-11T00:32:13.844Z,992.52
2023-04-11T00:33:13.787Z,992.43
2023-04-11T00:34:13.886Z,992.44
2023-04-11T00:35:13.349Z,992.35
2023-04-11T00:36:13.659Z,992.41
2023-04-11T00:37:14.068Z,992.35
2023-04-11T00:38:13.073Z,992.35
2023-04-11T00:39:13.176Z,992.40
2023-04-11T00:40:13.079Z,992.31
2023-04-11T00:41:13.118Z,992.30
2023-04-11T00:42:13.081Z,992.26
2023-04-11T00:43:13.549Z,992.21
2023-04-11T00:44:13.695Z,992.24
2023-04-11T00:45:13.872Z,992.27
2023-04-11T00:46:13.926Z,992.27
2023-04-11T00:47:13.470Z,992.37
2023-04-11T00:48:13.515Z,992.42
2023-04-11T00:49:13.454Z,992.51
2023-04-11T00:50:13.356Z,992.48
2023-04-11T00:51:13.272Z,992.46
2023-04-11T00:52:13.341Z,992.46
2023-04-11T00:53:13.230Z,992.44
2023-04-11T00:54:13.108Z,992.43
2023-04-11T00:55:13.039Z,992.35
2023-04-11T00:56:12.962Z,992.33
2023-04-11T00:57:12.899Z,992.30
2023-04-11T00:58:12.821Z,992.39
2023-04-11T00:59:13.806Z,992.36
2023-04-11T01:00:13.656Z,992.31
2023-04-11T01:01:13.581Z,992.32
2023-04-11T01:02:13.799Z,992.30
2023-04-11T01:03:14.091Z,992.32
2023-04-11T01:04:13.150Z,992.31
2023-04-11T01:05:13.125Z,992.24
2023-04-11T01:06:13.113Z,992.29
2023-04-11T01:07:12.945Z,992.31
2023-04-11T01:08:13.002Z,992.36
2023-04-11T01:09:13.040Z,992.31
2023-04-11T01:10:13.288Z,992.32
2023-04-11T01:11:13.582Z,992.30
2023-04-11T01:12:13.437Z,992.32
2023-04-11T01:13:13.470Z,992.32
2023-04-11T01:14:13.391Z,992.38
2023-04-11T01:15:13.658Z,992.35
2023-04-11T01:16:13.578Z,992.35
2023-04-11T01:17:13.707Z,992.35
2023-04-11T01:18:13.600Z,992.34
2023-04-11T01:19:13.565Z,992.37
2023-04-11T01:20:13.779Z,992.32
2023-04-11T01:21:13.608Z,992.29
2023-04-11T01:22:13.936Z,992.32
2023-04-11T01:23:12.981Z,992.29
2023-04-11T01:24:12.850Z,992.29
2023-04-11T01:25:13.835Z,992.33
2023-04-11T01:26:13.866Z,992.27
2023-04-11T01:27:13.931Z,992.24
2023-04-11T01:28:13.121Z,992.22
2023-04-11T01:29:13.340Z,992.24
2023-04-11T01:30:13.271Z,992.26
2023-04-11T01:31:13.168Z,992.24
2023-04-11T01:32:13.220Z,992.26
2023-04-11T01:33:13.523Z,992.20
2023-04-11T01:34:13.537Z,992.20
2023-04-11T01:35:13.790Z,992.16
2023-04-11T01:36:13.981Z,992.10
2023-04-11T01:37:12.832Z,992.08
2023-04-11T01:38:13.764Z,992.08
2023-04-11T01:39:13.731Z,992.19
2023-04-11T01:40:13.652Z,992.11
2023-04-11T01:41:13.480Z,992.13
2023-04-11T01:42:13.362Z,992.12
2023-04-11T01:43:13.590Z,992.12
2023-04-11T01:44:13.394Z,992.14
2023-04-11T01:45:13.409Z,992.13
2023-04-11T01:46:13.341Z,992.15
2023-04-11T01:47:13.709Z,992.15
2023-04-11T01:48:13.705Z,992.13
2023-04-11T01:49:13.734Z,992.21
2023-04-11T01:50:13.890Z,992.13
2023-04-11T01:51:12.939Z,992.15
2023-04-11T01:52:12.992Z,992.15
2023-04-11T01:53:12.924Z,992.04
2023-04-11T01:54:13.060Z,992.02
2023-04-11T01:55:12.949Z,992.05
2023-04-11T01:56:13.005Z,991.99
2023-04-11T01:57:13.125Z,992.04
2023-04-11T01:58:13.104Z,992.05
2023-04-11T01:59:12.912Z,991.88
2023-04-11T02:00:13.188Z,991.97
2023-04-11T02:01:13.483Z,991.99
2023-04-11T02:02:13.778Z,991.97
2023-04-11T02:03:14.187Z,991.94
2023-04-11T02:04:13.720Z,992.02
2023-04-11T02:05:13.835Z,991.85
2023-04-11T02:06:13.702Z,991.88
2023-04-11T02:07:13.785Z,992.00
2023-04-11T02:08:13.840Z,992.02
2023-04-11T02:09:13.631Z,992.03
2023-04-11T02:10:13.579Z,992.06
2023-04-11T02:11:13.421Z,992.10
2023-04-11T02:12:13.230Z,992.10
2023-04-11T02:13:13.424Z,992.12
2023-04-11T02:14:13.600Z,992.19
2023-04-11T02:15:13.567Z,992.21
2023-04-11T02:16:14.031Z,992.25
2023-04-11T02:17:13.122Z,992.21
2023-04-11T02:18:13.087Z,992.22
2023-04-11T02:19:12.971Z,992.27
2023-04-11T02:20:12.970Z,992.26
2023-04-11T02:21:12.930Z,992.28
2023-04-11T02:22:12.829Z,992.27
2023-04-11T02:23:13.774Z,992.35
2023-04-11T02:24:13.702Z,992.35
2023-04-11T02:25:13.891Z,992.36
2023-04-11T02:26:13.143Z,992.32
2023-04-11T02:27:13.382Z,992.34
2023-04-11T02:28:13.385Z,992.36
2023-04-11T02:29:13.230Z,992.42
2023-04-11T02:30:13.237Z,992.40
2023-04-11T02:31:13.299Z,992.35
2023-04-11T02:32:13.409Z,992.38
2023-04-11T02:33:13.483Z,992.35
2023-04-11T02:34:18.509Z,992.36
2023-04-11T02:35:13.690Z,992.40
2023-04-11T02:36:13.776Z,992.37
2023-04-11T02:37:14.001Z,992.32
2023-04-11T02:38:13.138Z,992.36
2023-04-11T02:39:13.149Z,992.33
2023-04-11T02:40:13.192Z,992.30
2023-04-11T02:41:13.193Z,992.23
2023-04-11T02:42:13.451Z,992.22
2023-04-11T02:43:13.499Z,992.27
2023-04-11T02:44:13.719Z,992.29
2023-04-11T02:45:13.632Z,992.39
2023-04-11T02:46:13.653Z,992.34
2023-04-11T02:47:13.728Z,992.31
2023-04-11T02:48:13.785Z,992.34
2023-04-11T02:49:13.770Z,992.31
2023-04-11T02:50:13.727Z,992.31
2023-04-11T02:51:13.641Z,992.36
2023-04-11T02:52:13.902Z,992.37
2023-04-11T02:53:13.057Z,992.36
2023-04-11T02:54:13.029Z,992.41
2023-04-11T02:55:13.107Z,992.47
2023-04-11T02:56:13.040Z,992.43
2023-04-11T02:57:12.991Z,992.41
2023-04-11T02:58:12.922Z,992.52
2023-04-11T02:59:13.470Z,992.46
2023-04-11T03:00:13.311Z,992.50
2023-04-11T03:01:13.355Z,992.52
2023-04-11T03:02:13.886Z,992.54
2023-04-11T03:03:13.341Z,992.52
2023-04-11T03:04:13.860Z,992.55
2023-04-11T03:05:12.731Z,992.48
2023-04-11T03:06:13.873Z,992.54
2023-04-11T03:07:12.986Z,992.48
2023-04-11T03:08:13.078Z,992.51
2023-04-11T03:09:13.169Z,992.49
2023-04-11T03:10:13.247Z,992.47
2023-04-11T03:11:13.708Z,992.52
2023-04-11T03:12:14.006Z,992.54
2023-04-11T03:13:12.980Z,992.53
2023-04-11T03:14:13.257Z,992.49
2023-04-11T03:15:13.213Z,992.54
2023-04-11T03:16:13.115Z,992.47
2023-04-11T03:17:13.360Z,992.52
2023-04-11T03:18:13.437Z,992.58
2023-04-11T03:19:13.615Z,992.57
2023-04-11T03:20:13.519Z,992.54
2023-04-11T03:21:13.450Z,992.42
2023-04-11T03:22:13.826Z,992.45
2023-04-11T03:23:13.802Z,992.58
2023-04-11T03:24:13.881Z,992.57
2023-04-11T03:25:13.780Z,992.58
2023-04-11T03:26:13.787Z,992.54
2023-04-11T03:27:13.654Z,992.62
2023-04-11T03:28:13.649Z,992.57
2023-04-11T03:29:13.682Z,992.59
2023-04-11T03:30:13.655Z,992.60
2023-04-11T03:31:13.669Z,992.62
2023-04-11T03:32:13.684Z,992.56
2023-04-11T03:33:13.520Z,992.53
2023-04-11T03:34:13.462Z,992.55
2023-04-11T03:35:13.495Z,992.55
2023-04-11T03:36:13.800Z,992.56
2023-04-11T03:37:14.083Z,992.53
2023-04-11T03:38:12.974Z,992.60
2023-04-11T03:39:12.972Z,992.60
2023-04-11T03:40:13.048Z,992.57
2023-04-11T03:41:13.165Z,992.51
2023-04-11T03:42:13.079Z,992.59
2023-04-11T03:43:13.163Z,992.56
2023-04-11T03:44:13.075Z,992.53
2023-04-11T03:45:12.849Z,992.61
2023-04-11T03:46:13.871Z,992.50
2023-04-11T03:47:12.819Z,992.53
2023-04-11T03:48:13.890Z,992.58
2023-04-11T03:49:12.919Z,992.59
2023-04-11T03:50:12.995Z,992.59
2023-04-11T03:51:12.816Z,992.60
2023-04-11T03:52:13.827Z,992.53
2023-04-11T03:53:13.811Z,992.61
2023-04-11T03:54:13.829Z,992.60
2023-04-11T03:55:13.891Z,992.60
2023-04-11T03:56:13.233Z,992.63
2023-04-11T03:57:13.219Z,992.59
2023-04-11T03:58:13.739Z,992.65
2023-04-11T03:59:14.071Z,992.71
2023-04-11T04:00:13.009Z,992.66
2023-04-11T04:01:13.017Z,992.70
2023-04-11T04:02:14.885Z,992.65
2023-04-11T04:03:13.386Z,992.65
2023-04-11T04:04:13.481Z,992.71
2023-04-11T04:05:13.716Z,992.71
2023-04-11T04:06:13.756Z,992.66
2023-04-11T04:07:13.683Z,992.73
2023-04-11T04:08:13.641Z,992.75
2023-04-11T04:09:13.515Z,992.77
2023-04-11T04:10:14.264Z,992.79
2023-04-11T04:11:13.391Z,992.73
2023-04-11T04:12:13.520Z,992.78
2023-04-11T04:13:13.480Z,992.78
2023-04-11T04:14:13.641Z,992.77
2023-04-11T04:15:13.649Z,992.77
2023-04-11T04:16:13.622Z,992.81
2023-04-11T04:17:13.529Z,992.79
2023-04-11T04:18:13.391Z,992.81
2023-04-11T04:19:13.476Z,992.81
2023-04-11T04:20:13.403Z,992.78
2023-04-11T04:21:13.316Z,992.84
2023-04-11T04:22:13.277Z,992.81
2023-04-11T04:23:13.637Z,992.79
2023-04-11T04:24:13.951Z,992.83
2023-04-11T04:25:13.190Z,992.80
2023-04-11T04:26:13.125Z,992.85
2023-04-11T04:27:13.071Z,992.87
2023-04-11T04:28:12.960Z,992.84
2023-04-11T04:29:13.018Z,992.87
2023-04-11T04:30:13.537Z,992.85
2023-04-11T04:31:13.418Z,992.88
2023-04-11T04:32:13.647Z,992.87
2023-04-11T04:33:13.536Z,992.89
2023-04-11T04:34:13.585Z,992.97
2023-04-11T04:35:13.777Z,992.97
2023-04-11T04:36:13.852Z,992.90
2023-04-11T04:37:13.913Z,992.88
2023-04-11T04:38:12.852Z,992.93
2023-04-11T04:39:13.713Z,992.95
2023-04-11T04:40:13.582Z,992.98
2023-04-11T04:41:13.678Z,992.94
2023-04-11T04:42:13.517Z,993.01
2023-04-11T04:43:13.359Z,992.98
2023-04-11T04:44:14.458Z,992.92
2023-04-11T04:45:13.496Z,992.91
2023-04-11T04:46:13.484Z,993.00
2023-04-11T04:47:13.483Z,992.94
2023-04-11T04:48:13.830Z,992.92
2023-04-11T04:49:13.824Z,992.99
2023-04-11T04:50:13.974Z,992.90
2023-04-11T04:51:13.175Z,993.00
2023-04-11T04:52:13.019Z,993.05
2023-04-11T04:53:12.912Z,992.88
2023-04-11T04:54:12.836Z,993.00
2023-04-11T04:55:13.798Z,993.06
2023-04-11T04:56:13.681Z,993.03
2023-04-11T04:57:13.732Z,993.06
2023-04-11T04:58:13.877Z,993.06
2023-04-11T04:59:12.868Z,993.06
2023-04-11T05:00:13.788Z,993.11
2023-04-11T05:01:13.822Z,993.13
2023-04-11T05:02:13.964Z,993.16
2023-04-11T05:03:13.148Z,993.15
2023-04-11T05:04:13.593Z,993.14
2023-04-11T05:05:13.856Z,993.12
2023-04-11T05:06:13.799Z,993.14
2023-04-11T05:07:13.868Z,993.14
2023-04-11T05:08:14.127Z,993.17
2023-04-11T05:09:13.142Z,993.19
2023-04-11T05:10:13.026Z,993.08
2023-04-11T05:11:12.961Z,993.18
2023-04-11T05:12:13.085Z,993.21
2023-04-11T05:13:12.900Z,993.22
2023-04-11T05:14:13.018Z,993.20
2023-04-11T05:15:12.945Z,993.23
2023-04-11T05:16:13.200Z,993.26
2023-04-11T05:17:13.217Z,993.24
2023-04-11T05:18:13.109Z,993.25
2023-04-11T05:19:13.002Z,993.22
2023-04-11T05:20:12.950Z,993.31
2023-04-11T05:21:13.422Z,993.35
2023-04-11T05:22:13.545Z,993.30
2023-04-11T05:23:13.644Z,993.37
2023-04-11T05:24:13.606Z,993.31
2023-04-11T05:25:13.681Z,993.38
2023-04-11T05:26:13.770Z,993.39
2023-04-11T05:27:13.759Z,993.36
2023-04-11T05:28:13.820Z,993.35
2023-04-11T05:29:13.687Z,993.29
2023-04-11T05:30:13.543Z,993.35
2023-04-11T05:31:13.620Z,993.42
2023-04-11T05:32:13.540Z,993.46
2023-04-11T05:33:13.422Z,993.43
2023-04-11T05:34:13.468Z,993.43
2023-04-11T05:35:13.767Z,993.44
2023-04-11T05:36:13.764Z,993.54
2023-04-11T05:37:13.873Z,993.52
2023-04-11T05:38:13.833Z,993.52
2023-04-11T05:39:14.041Z,993.46
2023-04-11T05:40:12.896Z,993.35
2023-04-11T05:41:12.796Z,993.48
2023-04-11T05:42:13.687Z,993.53
2023-04-11T05:43:13.613Z,993.50
2023-04-11T05:44:13.690Z,993.63
2023-04-11T05:45:13.595Z,993.52
2023-04-11T05:46:13.538Z,993.58
2023-04-11T05:47:13.426Z,993.49
2023-04-11T05:48:15.886Z,993.55
2023-04-11T05:49:18.231Z,993.55
2023-04-11T05:50:13.220Z,993.64
2023-04-11T05:51:13.357Z,993.58
2023-04-11T05:52:13.645Z,993.61
2023-04-11T05:53:13.566Z,993.54
2023-04-11T05:54:13.452Z,993.60
2023-04-11T05:55:13.773Z,993.57
2023-04-11T05:56:13.792Z,993.61
2023-04-11T05:57:13.698Z,993.73
2023-04-11T05:58:13.678Z,993.64
2023-04-11T05:59:13.548Z,993.65
2023-04-11T06:00:13.476Z,993.68
2023-04-11T06:01:13.412Z,993.69
2023-04-11T06:02:13.409Z,993.64
2023-04-11T06:03:13.791Z,993.66
2023-04-11T06:04:13.176Z,993.79
2023-04-11T06:05:13.321Z,993.79
2023-04-11T06:06:13.833Z,993.69
2023-04-11T06:07:13.858Z,993.78
2023-04-11T06:08:13.778Z,993.78
2023-04-11T06:09:13.779Z,993.77
2023-04-11T06:10:13.742Z,993.71
2023-04-11T06:11:13.659Z,993.72
2023-04-11T06:12:13.907Z,993.80
2023-04-11T06:13:12.819Z,993.77
2023-04-11T06:14:13.668Z,993.75
2023-04-11T06:15:13.660Z,993.75
2023-04-11T06:16:13.783Z,993.74
2023-04-11T06:17:18.903Z,993.79
2023-04-11T06:18:14.189Z,993.83
2023-04-11T06:19:13.274Z,993.81
2023-04-11T06:20:13.303Z,993.86
2023-04-11T06:21:13.172Z,993.81
2023-04-11T06:22:13.082Z,993.88
2023-04-11T06:23:14.045Z,993.90
2023-04-11T06:24:13.118Z,993.84
2023-04-11T06:25:13.219Z,993.90
2023-04-11T06:26:18.285Z,993.88
2023-04-11T06:27:13.227Z,993.94
2023-04-11T06:28:13.243Z,993.98
2023-04-11T06:29:13.090Z,994.01
2023-04-11T06:30:13.225Z,994.02
2023-04-11T06:31:13.788Z,994.06
2023-04-11T06:32:13.651Z,994.10
2023-04-11T06:33:13.664Z,994.11
2023-04-11T06:34:13.592Z,994.04
2023-04-11T06:35:13.791Z,994.22
2023-04-11T06:36:13.840Z,994.07
2023-04-11T06:37:13.898Z,994.03
2023-04-11T06:38:13.194Z,994.13
2023-04-11T06:39:18.522Z,994.22
2023-04-11T06:40:13.599Z,994.34
2023-04-11T06:41:13.559Z,994.23
2023-04-11T06:42:13.676Z,994.15
2023-04-11T06:43:14.028Z,994.29
2023-04-11T06:44:13.136Z,994.31
2023-04-11T06:45:13.221Z,994.25
2023-04-11T06:46:13.049Z,994.22
2023-04-11T06:47:12.958Z,994.36
2023-04-11T06:48:13.068Z,994.24
2023-04-11T06:49:13.075Z,994.36
2023-04-11T06:50:13.098Z,994.34
2023-04-11T06:51:13.925Z,994.37
2023-04-11T06:52:13.171Z,994.30
2023-04-11T06:53:13.066Z,994.41
2023-04-11T06:54:18.260Z,994.29
2023-04-11T06:55:13.168Z,994.42
2023-04-11T06:56:13.356Z,994.42
2023-04-11T06:57:13.418Z,994.36
2023-04-11T06:58:13.407Z,994.39
2023-04-11T06:59:13.286Z,994.41
2023-04-11T07:00:14.279Z,994.49
2023-04-11T07:01:13.200Z,994.40
2023-04-11T07:02:13.235Z,994.42
2023-04-11T07:03:13.219Z,994.35
2023-04-11T07:04:13.403Z,994.51
2023-04-11T07:05:13.556Z,994.37
2023-04-11T07:06:13.456Z,994.47
2023-04-11T07:07:13.542Z,994.52
2023-04-11T07:08:13.498Z,994.50
2023-04-11T07:09:14.705Z,994.64
2023-04-11T07:10:13.735Z,994.45
2023-04-11T07:11:13.868Z,994.47
2023-04-11T07:12:12.912Z,994.68
2023-04-11T07:13:12.851Z,994.64
2023-04-11T07:14:13.788Z,994.69
2023-04-11T07:15:13.641Z,994.68
2023-04-11T07:16:13.597Z,994.68
2023-04-11T07:17:13.731Z,994.59
2023-04-11T07:18:13.645Z,994.71
2023-04-11T07:19:13.771Z,994.69
2023-04-11T07:20:13.635Z,994.65
2023-04-11T07:21:13.585Z,994.66
2023-04-11T07:22:13.446Z,994.64
2023-04-11T07:23:13.409Z,994.79
2023-04-11T07:24:13.301Z,994.75
2023-04-11T07:25:13.440Z,994.81
2023-04-11T07:26:13.528Z,994.72
2023-04-11T07:27:13.516Z,994.78
2023-04-11T07:28:13.697Z,994.91
2023-04-11T07:29:14.910Z,994.83
2023-04-11T07:30:13.329Z,994.82
2023-04-11T07:31:13.356Z,994.98
2023-04-11T07:32:13.175Z,994.60
2023-04-11T07:33:13.360Z,994.86
2023-04-11T07:34:13.220Z,994.76
2023-04-11T07:35:13.122Z,994.87
2023-04-11T07:36:13.038Z,994.82
2023-04-11T07:37:12.999Z,994.92
2023-04-11T07:38:12.906Z,995.01
2023-04-11T07:39:12.972Z,995.04
2023-04-11T07:40:12.911Z,995.02
2023-04-11T07:41:12.929Z,995.06
2023-04-11T07:42:12.784Z,994.99
2023-04-11T07:43:14.124Z,994.94
2023-04-11T07:44:13.454Z,994.95
2023-04-11T07:45:13.582Z,994.97
2023-04-11T07:46:13.904Z,994.99
2023-04-11T07:47:12.853Z,995.01
2023-04-11T07:48:13.830Z,994.89
2023-04-11T07:49:14.078Z,995.00
2023-04-11T07:50:13.015Z,995.06
2023-04-11T07:51:12.944Z,995.02
2023-04-11T07:52:14.291Z,995.03
2023-04-11T07:53:13.905Z,995.04
2023-04-11T07:54:14.284Z,995.06
2023-04-11T07:55:13.254Z,995.02
2023-04-11T07:56:18.215Z,995.10
2023-04-11T07:57:13.200Z,995.03
2023-04-11T07:58:13.286Z,995.16
2023-04-11T07:59:13.437Z,995.10
2023-04-11T08:00:13.665Z,995.13
2023-04-11T08:01:13.745Z,995.11
2023-04-11T08:02:13.731Z,994.97
2023-04-11T08:03:14.024Z,995.09
2023-04-11T08:04:13.695Z,995.03
2023-04-11T08:05:13.780Z,994.96
2023-04-11T08:06:13.923Z,995.04
2023-04-11T08:07:12.885Z,995.12
2023-04-11T08:08:14.136Z,995.11
2023-04-11T08:09:13.303Z,995.01
2023-04-11T08:10:13.185Z,995.10
2023-04-11T08:11:13.268Z,995.18
2023-04-11T08:12:13.380Z,995.12
2023-04-11T08:13:13.450Z,995.08
2023-04-11T08:14:13.405Z,995.06
2023-04-11T08:15:13.434Z,995.11
2023-04-11T08:16:13.254Z,995.09
2023-04-11T08:17:25.136Z,995.09
2023-04-11T08:18:12.892Z,995.03
2023-04-11T08:19:12.888Z,995.22
2023-04-11T08:20:12.784Z,995.23
2023-04-11T08:21:14.069Z,995.08
2023-04-11T08:22:13.043Z,995.10
2023-04-11T08:23:13.078Z,995.08
2023-04-11T08:24:13.146Z,995.13
2023-04-11T08:25:13.072Z,995.23
2023-04-11T08:26:13.426Z,995.16
2023-04-11T08:27:13.319Z,995.14
2023-04-11T08:28:13.347Z,995.16
2023-04-11T08:29:13.569Z,995.18
2023-04-11T08:30:13.478Z,995.14
2023-04-11T08:31:13.782Z,995.08
2023-04-11T08:32:13.773Z,995.10
2023-04-11T08:33:13.679Z,995.15
2023-04-11T08:34:13.983Z,995.13
2023-04-11T08:35:13.128Z,995.22
2023-04-11T08:36:13.102Z,995.14
2023-04-11T08:37:13.000Z,995.09
2023-04-11T08:38:13.047Z,995.26
2023-04-11T08:39:13.121Z,995.20
2023-04-11T08:40:12.973Z,995.26
2023-04-11T08:41:13.008Z,995.19
2023-04-11T08:42:13.104Z,995.14
2023-04-11T08:43:13.064Z,995.24
2023-04-11T08:44:13.247Z,995.27
2023-04-11T08:45:13.203Z,995.28
2023-04-11T08:46:14.477Z,995.14
2023-04-11T08:47:13.541Z,995.20
2023-04-11T08:48:13.575Z,995.29
2023-04-11T08:49:13.516Z,995.32
2023-04-11T08:50:13.484Z,995.28
2023-04-11T08:51:13.589Z,995.19
2023-04-11T08:52:13.656Z,995.29
2023-04-11T08:53:13.938Z,995.30
2023-04-11T08:54:13.412Z,995.29
2023-04-11T08:55:13.851Z,995.22
2023-04-11T08:56:13.833Z,995.34
2023-04-11T08:57:13.767Z,995.18
2023-04-11T08:58:13.777Z,995.31
2023-04-11T08:59:13.728Z,995.32
2023-04-11T09:00:15.011Z,995.32
2023-04-11T09:01:13.517Z,995.41
2023-04-11T09:02:13.651Z,995.24
2023-04-11T09:03:13.900Z,995.33
2023-04-11T09:04:12.938Z,995.33
2023-04-11T09:05:13.492Z,995.42
2023-04-11T09:06:14.060Z,995.40
2023-04-11T09:07:13.154Z,995.37
2023-04-11T09:08:13.144Z,995.42
2023-04-11T09:09:14.653Z,995.41
2023-04-11T09:10:13.547Z,995.56
2023-04-11T09:11:13.836Z,995.40
2023-04-11T09:12:18.958Z,995.55
2023-04-11T09:13:13.267Z,995.54
2023-04-11T09:14:13.353Z,995.57
2023-04-11T09:15:13.333Z,995.54
2023-04-11T09:16:13.251Z,995.52
2023-04-11T09:17:13.226Z,995.57
2023-04-11T09:18:13.118Z,995.59
2023-04-11T09:19:13.123Z,995.54
2023-04-11T09:20:13.129Z,995.50
2023-04-11T09:21:14.462Z,995.46
2023-04-11T09:22:13.429Z,995.49
2023-04-11T09:23:13.411Z,995.40
2023-04-11T09:24:13.578Z,995.63
2023-04-11T09:25:13.859Z,995.49
2023-04-11T09:26:14.125Z,995.47
2023-04-11T09:27:14.159Z,995.52
2023-04-11T09:28:18.409Z,995.47
2023-04-11T09:29:13.621Z,995.45
2023-04-11T09:30:13.465Z,995.45
2023-04-11T09:31:14.004Z,995.42
2023-04-11T09:32:13.563Z,995.51
2023-04-11T09:33:13.762Z,995.51
2023-04-11T09:34:14.048Z,995.40
2023-04-11T09:35:13.230Z,995.47
2023-04-11T09:36:13.195Z,995.35
2023-04-11T09:37:25.380Z,995.42
2023-04-11T09:38:13.339Z,995.49
2023-04-11T09:39:14.381Z,995.47
2023-04-11T09:40:13.383Z,995.45
2023-04-11T09:41:13.403Z,995.52
2023-04-11T09:42:13.672Z,995.59
2023-04-11T09:43:19.904Z,995.55
2023-04-11T09:44:13.853Z,995.43
2023-04-11T09:45:14.617Z,995.36
2023-04-11T09:46:13.760Z,995.50
2023-04-11T09:47:18.956Z,995.48
2023-04-11T09:48:13.337Z,995.58
2023-04-11T09:49:13.436Z,995.38
2023-04-11T09:50:13.594Z,995.58
2023-04-11T09:51:18.085Z,995.47
2023-04-11T09:52:13.040Z,995.57
2023-04-11T09:53:13.241Z,995.60
2023-04-11T09:54:13.502Z,995.56
2023-04-11T09:55:13.583Z,995.62
2023-04-11T09:56:13.670Z,995.52
2023-04-11T09:57:13.655Z,995.49
2023-04-11T09:58:13.473Z,995.58
2023-04-11T09:59:13.470Z,995.48
2023-04-11T10:00:13.367Z,995.64
2023-04-11T10:01:13.602Z,995.43
2023-04-11T10:02:13.626Z,995.66
2023-04-11T10:03:14.125Z,995.67
2023-04-11T10:04:13.534Z,995.69
2023-04-11T10:05:14.178Z,995.25
2023-04-11T10:06:13.080Z,995.60
2023-04-11T10:07:13.024Z,995.56
2023-04-11T10:08:13.054Z,995.68
2023-04-11T10:09:13.475Z,995.60
2023-04-11T10:10:14.364Z,995.23
2023-04-11T10:11:13.695Z,995.67
2023-04-11T10:12:13.813Z,995.74
2023-04-11T10:13:13.832Z,995.63
2023-04-11T10:14:13.796Z,995.88
2023-04-11T10:15:13.754Z,995.61
2023-04-11T10:16:14.178Z,995.58
2023-04-11T10:17:13.417Z,995.92
2023-04-11T10:18:13.853Z,995.58
2023-04-11T10:19:13.851Z,995.65
2023-04-11T10:20:13.785Z,995.63
2023-04-11T10:21:13.827Z,995.67
2023-04-11T10:22:14.022Z,995.70
2023-04-11T10:23:13.218Z,995.66
2023-04-11T10:24:15.867Z,995.75
2023-04-11T10:25:13.430Z,995.67
2023-04-11T10:26:13.455Z,995.64
2023-04-11T10:27:13.435Z,995.70
2023-04-11T10:28:13.629Z,995.63
2023-04-11T10:29:13.857Z,995.65
2023-04-11T10:30:13.916Z,995.72
2023-04-11T10:31:13.259Z,995.78
2023-04-11T10:32:13.346Z,995.65
2023-04-11T10:33:13.350Z,995.86
2023-04-11T10:34:13.489Z,995.77
2023-04-11T10:35:13.640Z,995.74
2023-04-11T10:36:14.009Z,995.87
2023-04-11T10:37:13.044Z,995.72
2023-04-11T10:38:13.030Z,995.90
2023-04-11T10:39:13.328Z,995.65
2023-04-11T10:40:13.449Z,995.61
2023-04-11T10:41:13.364Z,995.60
2023-04-11T10:42:13.778Z,995.85
2023-04-11T10:43:13.875Z,995.72
2023-04-11T10:44:14.069Z,995.82
2023-04-11T10:45:13.145Z,995.66
2023-04-11T10:46:13.184Z,995.89
2023-04-11T10:47:13.455Z,995.85
2023-04-11T10:48:13.633Z,995.91
2023-04-11T10:49:13.769Z,995.83
2023-04-11T10:50:13.767Z,995.78
2023-04-11T10:51:14.050Z,995.68
2023-04-11T10:52:14.482Z,995.80
2023-04-11T10:53:13.544Z,995.73
2023-04-11T10:54:13.456Z,995.59
2023-04-11T10:55:13.681Z,995.59
2023-04-11T10:56:14.622Z,995.33
2023-04-11T10:57:13.716Z,995.83
2023-04-11T10:58:13.816Z,995.73
2023-04-11T10:59:13.865Z,995.84
2023-04-11T11:00:13.921Z,995.74
2023-04-11T11:01:21.365Z,995.85
2023-04-11T11:02:20.135Z,995.94
2023-04-11T11:03:13.941Z,995.77
2023-04-11T11:04:13.629Z,995.85
2023-04-11T11:05:13.220Z,995.97
2023-04-11T11:06:13.190Z,995.88
2023-04-11T11:07:13.170Z,995.85
2023-04-11T11:08:13.111Z,995.88
2023-04-11T11:09:13.669Z,995.79
2023-04-11T11:10:13.788Z,995.82
2023-04-11T11:11:13.879Z,995.94
2023-04-11T11:12:13.234Z,995.86
2023-04-11T11:13:13.123Z,995.95
2023-04-11T11:14:12.989Z,996.04
2023-04-11T11:15:14.047Z,995.90
2023-04-11T11:16:13.137Z,995.80
2023-04-11T11:17:13.298Z,995.85
2023-04-11T11:18:13.483Z,995.75
2023-04-11T11:19:13.495Z,995.89
2023-04-11T11:20:13.386Z,995.86
2023-04-11T11:21:17.007Z,995.88
2023-04-11T11:22:13.753Z,995.75
2023-04-11T11:23:13.749Z,995.93
2023-04-11T11:24:13.993Z,995.78
2023-04-11T11:25:13.270Z,995.88
2023-04-11T11:26:13.191Z,995.84
2023-04-11T11:27:13.078Z,995.84
2023-04-11T11:28:13.511Z,995.78
2023-04-11T11:29:13.389Z,995.89
2023-04-11T11:30:13.376Z,995.81
2023-04-11T11:31:13.428Z,995.88
2023-04-11T11:32:13.401Z,995.97
2023-04-11T11:33:13.921Z,995.87
2023-04-11T11:34:23.469Z,995.95
2023-04-11T11:35:13.369Z,995.83
2023-04-11T11:36:13.663Z,995.94
2023-04-11T11:37:13.978Z,995.91
2023-04-11T11:38:13.111Z,995.85
2023-04-11T11:39:13.077Z,995.92
2023-04-11T11:40:13.126Z,995.89
2023-04-11T11:41:13.246Z,995.87
2023-04-11T11:42:13.364Z,995.84
2023-04-11T11:43:13.228Z,995.98
2023-04-11T11:44:13.284Z,995.98
2023-04-11T11:45:13.266Z,995.91
2023-04-11T11:46:13.311Z,995.81
2023-04-11T11:47:13.330Z,995.85
2023-04-11T11:48:13.171Z,995.94
2023-04-11T11:49:13.144Z,995.83
2023-04-11T11:50:13.092Z,996.04
2023-04-11T11:51:13.194Z,996.02
2023-04-11T11:52:13.361Z,996.03
2023-04-11T11:53:13.713Z,996.10
2023-04-11T11:54:13.750Z,996.06
2023-04-11T11:55:13.923Z,996.04
2023-04-11T11:56:12.711Z,995.91
2023-04-11T11:57:13.670Z,996.04
2023-04-11T11:58:13.853Z,996.17
2023-04-11T11:59:13.728Z,996.01
2023-04-11T12:00:13.874Z,996.19
2023-04-11T12:02:12.821Z,995.89
2023-04-11T12:03:12.883Z,996.08
2023-04-11T12:04:13.252Z,995.96
2023-04-11T12:05:13.962Z,996.01
2023-04-11T12:06:12.897Z,995.93
2023-04-11T12:07:12.878Z,996.04
2023-04-11T12:08:13.697Z,996.08
2023-04-11T12:09:13.494Z,995.98
2023-04-11T12:10:13.640Z,996.13
2023-04-11T12:11:13.662Z,996.11
2023-04-11T12:12:13.787Z,996.24
2023-04-11T12:13:14.300Z,996.09
2023-04-11T12:14:13.396Z,995.91
2023-04-11T12:15:13.592Z,996.01
2023-04-11T12:16:13.588Z,996.24
2023-04-11T12:17:13.515Z,996.29
2023-04-11T12:18:13.533Z,996.29
2023-04-11T12:19:13.574Z,996.16
2023-04-11T12:20:13.657Z,996.14
2023-04-11T12:21:13.617Z,996.20
2023-04-11T12:22:13.718Z,996.20
2023-04-11T12:23:13.588Z,996.47
2023-04-11T12:24:13.527Z,996.25
2023-04-11T12:25:13.515Z,996.24
2023-04-11T12:26:13.898Z,996.19
2023-04-11T12:27:13.114Z,996.26
2023-04-11T12:28:13.045Z,996.29
2023-04-11T12:29:12.987Z,996.03